createdAt,value
2018-11-25T00:01:02.676Z,79.73
2018-11-25T00:03:30.062Z,79.83
2018-11-25T00:05:58.348Z,80.42
2018-11-25T00:08:25.734Z,80.60
2018-11-25T00:10:53.139Z,80.55
2018-11-25T00:13:20.556Z,80.24
2018-11-25T00:15:48.035Z,79.80
2018-11-25T00:18:16.378Z,79.54
2018-11-25T00:20:43.777Z,79.62
2018-11-25T00:23:12.010Z,79.79
2018-11-25T00:25:39.412Z,79.36
2018-11-25T00:28:06.839Z,79.06
2018-11-25T00:30:34.411Z,78.91
2018-11-25T00:33:01.802Z,78.54
2018-11-25T00:35:29.234Z,78.12
2018-11-25T00:37:56.650Z,78.40
2018-11-25T00:40:24.063Z,78.03
2018-11-25T00:42:51.463Z,78.07
2018-11-25T00:45:18.914Z,78.12
2018-11-25T00:47:46.289Z,77.99
2018-11-25T00:50:14.616Z,78.10
2018-11-25T00:52:42.016Z,78.03
2018-11-25T00:55:09.411Z,77.90
2018-11-25T00:57:36.814Z,77.68
2018-11-25T01:00:04.514Z,77.99
2018-11-25T01:02:32.097Z,77.86
2018-11-25T01:04:59.497Z,77.59
2018-11-25T01:07:26.951Z,78.00
2018-11-25T01:09:54.404Z,77.62
2018-11-25T01:12:21.815Z,77.11
2018-11-25T01:14:49.216Z,77.18
2018-11-25T01:17:16.638Z,77.35
2018-11-25T01:19:44.028Z,77.12
2018-11-25T01:22:11.632Z,77.15
2018-11-25T01:24:39.042Z,77.59
2018-11-25T01:27:06.502Z,77.36
2018-11-25T01:29:34.026Z,77.48
2018-11-25T01:32:01.402Z,77.68
2018-11-25T01:34:28.838Z,78.17
2018-11-25T01:36:56.270Z,77.89
2018-11-25T01:39:23.750Z,77.92
2018-11-25T01:41:51.141Z,77.95
2018-11-25T01:44:18.546Z,77.54
2018-11-25T01:46:45.945Z,77.25
2018-11-25T01:49:13.425Z,77.14
2018-11-25T01:51:40.854Z,77.43
2018-11-25T01:54:08.305Z,77.56
2018-11-25T01:56:35.738Z,77.36
2018-11-25T01:59:03.117Z,77.50
2018-11-25T02:01:30.536Z,77.55
2018-11-25T02:03:57.918Z,77.29
2018-11-25T02:06:25.327Z,77.28
2018-11-25T02:08:52.729Z,77.25
2018-11-25T02:11:20.141Z,77.11
2018-11-25T02:13:47.542Z,77.46
2018-11-25T02:16:14.935Z,77.53
2018-11-25T02:18:42.345Z,77.54
2018-11-25T02:21:09.804Z,77.46
2018-11-25T02:23:37.213Z,77.60
2018-11-25T02:26:05.489Z,77.63
2018-11-25T02:28:32.899Z,77.36
2018-11-25T02:31:00.340Z,77.21
2018-11-25T02:33:27.811Z,76.99
2018-11-25T02:35:55.261Z,76.83
2018-11-25T02:40:56.498Z,77.13
2018-11-25T02:43:23.909Z,77.45
2018-11-25T02:45:51.366Z,77.66
2018-11-25T02:48:18.774Z,77.81
2018-11-25T02:50:46.230Z,77.91
2018-11-25T02:53:13.650Z,77.91
2018-11-25T02:55:41.053Z,77.64
2018-11-25T02:58:08.451Z,78.00
2018-11-25T03:00:35.863Z,78.03
2018-11-25T03:03:03.256Z,78.09
2018-11-25T03:05:30.661Z,77.87
2018-11-25T03:07:58.044Z,77.84
2018-11-25T03:10:25.449Z,77.70
2018-11-25T03:12:52.862Z,77.53
2018-11-25T03:15:20.272Z,77.51
2018-11-25T03:17:47.693Z,77.36
2018-11-25T03:20:15.148Z,77.33
2018-11-25T03:22:42.674Z,77.29
2018-11-25T03:25:10.099Z,77.24
2018-11-25T03:27:37.591Z,77.25
2018-11-25T03:30:05.822Z,77.24
2018-11-25T03:32:33.272Z,77.25
2018-11-25T03:35:00.662Z,77.13
2018-11-25T03:37:28.087Z,77.10
2018-11-25T03:39:55.510Z,77.12
2018-11-25T03:42:22.910Z,77.23
2018-11-25T03:44:50.322Z,77.41
2018-11-25T03:47:17.726Z,77.47
2018-11-25T03:49:45.122Z,77.56
2018-11-25T03:52:12.531Z,77.52
2018-11-25T03:54:39.962Z,77.58
2018-11-25T03:57:07.372Z,77.50
2018-11-25T03:59:34.773Z,77.48
2018-11-25T04:02:02.222Z,77.57
2018-11-25T04:04:29.704Z,77.57
2018-11-25T04:06:57.101Z,77.83
2018-11-25T04:09:25.251Z,78.05
2018-11-25T04:11:52.851Z,77.78
2018-11-25T04:14:20.412Z,77.98
2018-11-25T04:16:47.810Z,77.79
2018-11-25T04:19:15.201Z,77.71
2018-11-25T04:21:42.645Z,78.07
2018-11-25T04:24:10.049Z,78.77
2018-11-25T04:26:37.468Z,78.87
2018-11-25T04:29:04.905Z,79.21
2018-11-25T04:31:32.305Z,79.22
2018-11-25T04:33:59.710Z,79.27
2018-11-25T04:36:27.764Z,79.14
2018-11-25T04:38:55.160Z,79.13
2018-11-25T04:41:22.582Z,79.10
2018-11-25T04:43:50.003Z,79.14
2018-11-25T04:46:17.433Z,79.06
2018-11-25T04:48:45.479Z,79.17
2018-11-25T04:51:12.894Z,79.00
2018-11-25T04:53:40.337Z,78.66
2018-11-25T04:56:07.764Z,78.42
2018-11-25T04:58:35.168Z,78.27
2018-11-25T05:01:02.668Z,78.42
2018-11-25T05:03:30.107Z,78.45
2018-11-25T05:05:57.505Z,78.30
2018-11-25T05:08:24.920Z,78.09
2018-11-25T05:10:52.462Z,77.60
2018-11-25T05:13:19.866Z,77.26
2018-11-25T05:15:47.566Z,77.29
2018-11-25T05:18:14.971Z,76.95
2018-11-25T05:20:42.386Z,76.90
2018-11-25T05:23:10.000Z,77.03
2018-11-25T05:25:37.421Z,76.98
2018-11-25T05:28:04.884Z,76.99
2018-11-25T05:30:32.303Z,76.91
2018-11-25T05:32:59.701Z,76.74
2018-11-25T05:35:27.106Z,77.08
2018-11-25T05:37:54.511Z,77.35
2018-11-25T05:40:21.924Z,76.88
2018-11-25T05:42:49.365Z,76.31
2018-11-25T05:45:16.788Z,76.03
2018-11-25T05:47:44.191Z,75.75
2018-11-25T05:50:11.587Z,76.02
2018-11-25T05:52:38.980Z,76.51
2018-11-25T05:55:06.389Z,77.10
2018-11-25T05:57:34.601Z,76.82
2018-11-25T06:00:02.026Z,76.58
2018-11-25T06:02:29.441Z,76.55
2018-11-25T06:04:57.419Z,76.34
2018-11-25T06:07:24.827Z,76.25
2018-11-25T06:09:52.246Z,75.91
2018-11-25T06:12:19.633Z,75.85
2018-11-25T06:14:47.154Z,75.84
2018-11-25T06:17:14.550Z,75.80
2018-11-25T06:19:42.071Z,76.07
2018-11-25T06:22:09.475Z,76.06
2018-11-25T06:24:36.970Z,76.19
2018-11-25T06:27:04.378Z,76.28
2018-11-25T06:29:31.777Z,75.83
2018-11-25T06:31:59.177Z,75.94
2018-11-25T06:34:26.576Z,75.93
2018-11-25T06:36:54.079Z,75.71
2018-11-25T06:39:21.471Z,75.95
2018-11-25T06:41:48.875Z,75.81
2018-11-25T06:44:16.333Z,75.78
2018-11-25T06:46:44.482Z,76.41
2018-11-25T06:49:12.006Z,76.43
2018-11-25T06:51:39.436Z,76.69
2018-11-25T06:54:06.836Z,76.70
2018-11-25T06:56:34.245Z,76.23
2018-11-25T06:59:01.647Z,75.98
2018-11-25T07:01:29.066Z,75.73
2018-11-25T07:03:56.467Z,75.58
2018-11-25T07:06:23.868Z,75.63
2018-11-25T07:08:51.272Z,75.55
2018-11-25T07:11:18.662Z,75.34
2018-11-25T07:13:46.091Z,75.16
2018-11-25T07:16:13.854Z,75.33
2018-11-25T07:18:41.312Z,75.45
2018-11-25T07:21:08.721Z,75.14
2018-11-25T07:23:36.220Z,75.33
2018-11-25T07:26:03.682Z,75.14
2018-11-25T07:28:31.093Z,75.29
2018-11-25T07:30:58.513Z,75.49
2018-11-25T07:33:25.926Z,75.40
2018-11-25T07:35:53.330Z,74.94
2018-11-25T07:38:20.737Z,75.47
2018-11-25T07:40:48.139Z,75.66
2018-11-25T07:43:15.557Z,75.51
2018-11-25T07:45:43.057Z,75.73
2018-11-25T07:48:10.451Z,75.12
2018-11-25T07:50:37.862Z,74.80
2018-11-25T07:53:05.274Z,74.79
2018-11-25T07:55:32.687Z,74.76
2018-11-25T07:58:00.094Z,74.46
2018-11-25T08:00:27.521Z,74.18
2018-11-25T08:02:55.406Z,73.78
2018-11-25T08:05:22.875Z,73.80
2018-11-25T08:07:50.309Z,73.50
2018-11-25T08:10:17.743Z,73.65
2018-11-25T08:12:45.314Z,73.68
2018-11-25T08:15:12.710Z,73.65
2018-11-25T08:17:40.114Z,73.51
2018-11-25T08:20:07.518Z,73.43
2018-11-25T08:22:34.926Z,73.46
2018-11-25T08:25:02.327Z,73.73
2018-11-25T08:27:29.718Z,73.84
2018-11-25T08:29:57.112Z,74.04
2018-11-25T08:32:24.857Z,74.02
2018-11-25T08:34:52.248Z,73.57
2018-11-25T08:37:20.003Z,73.20
2018-11-25T08:39:47.427Z,72.85
2018-11-25T08:42:15.491Z,73.01
2018-11-25T08:44:42.906Z,72.61
2018-11-25T08:47:10.313Z,72.23
2018-11-25T08:49:37.717Z,72.34
2018-11-25T08:52:05.158Z,72.86
2018-11-25T08:54:32.553Z,72.79
2018-11-25T08:56:59.969Z,72.91
2018-11-25T08:59:28.242Z,73.04
2018-11-25T09:01:55.638Z,72.86
2018-11-25T09:04:23.081Z,72.38
2018-11-25T09:06:51.034Z,72.40
2018-11-25T09:09:18.446Z,72.23
2018-11-25T09:11:45.863Z,71.78
2018-11-25T09:14:13.264Z,70.77
2018-11-25T09:16:40.673Z,70.13
2018-11-25T09:19:08.129Z,69.44
2018-11-25T09:21:35.558Z,69.06
2018-11-25T09:24:03.014Z,69.54
2018-11-25T09:26:30.442Z,70.13
2018-11-25T09:28:57.865Z,69.95
2018-11-25T09:31:25.435Z,70.04
2018-11-25T09:33:53.069Z,69.93
2018-11-25T09:36:20.470Z,70.49
2018-11-25T09:38:47.881Z,70.45
2018-11-25T09:41:15.365Z,70.66
2018-11-25T09:43:42.766Z,70.92
2018-11-25T09:46:10.328Z,70.97
2018-11-25T09:48:37.797Z,70.63
2018-11-25T09:51:05.189Z,70.18
2018-11-25T09:53:32.597Z,69.98
2018-11-25T09:55:59.994Z,70.74
2018-11-25T09:58:27.406Z,70.94
2018-11-25T10:00:54.884Z,70.75
2018-11-25T10:03:22.309Z,70.08
2018-11-25T10:05:49.702Z,70.16
2018-11-25T10:08:17.100Z,70.51
2018-11-25T10:10:44.502Z,70.86
2018-11-25T10:13:11.933Z,70.70
2018-11-25T10:15:39.419Z,70.07
2018-11-25T10:18:06.820Z,69.70
2018-11-25T10:20:34.243Z,68.92
2018-11-25T10:23:01.648Z,68.31
2018-11-25T10:25:29.048Z,68.88
2018-11-25T10:27:56.451Z,68.76
2018-11-25T10:30:23.859Z,68.79
2018-11-25T10:32:51.251Z,68.75
2018-11-25T10:35:18.713Z,69.20
2018-11-25T10:37:46.133Z,69.25
2018-11-25T10:40:13.552Z,69.31
2018-11-25T10:42:40.969Z,69.36
2018-11-25T10:45:08.478Z,69.81
2018-11-25T10:47:35.891Z,69.63
2018-11-25T10:50:03.388Z,69.29
2018-11-25T10:52:30.800Z,68.51
2018-11-25T10:54:58.256Z,67.85
2018-11-25T10:57:25.879Z,67.18
2018-11-25T10:59:53.444Z,67.11
2018-11-25T11:02:21.011Z,66.54
2018-11-25T11:04:48.446Z,66.05
2018-11-25T11:07:26.691Z,65.97
2018-11-25T11:09:54.115Z,65.97
2018-11-25T11:12:21.522Z,66.14
2018-11-25T11:14:48.927Z,66.80
2018-11-25T11:17:16.328Z,66.99
2018-11-25T11:19:43.758Z,66.80
2018-11-25T11:22:11.181Z,66.82
2018-11-25T11:24:38.584Z,66.90
2018-11-25T11:27:05.999Z,66.58
2018-11-25T11:29:33.997Z,66.73
2018-11-25T11:32:01.493Z,66.45
2018-11-25T11:34:29.010Z,66.50
2018-11-25T11:36:56.467Z,66.46
2018-11-25T11:39:23.903Z,66.61
2018-11-25T11:41:51.521Z,66.55
2018-11-25T11:44:18.949Z,66.63
2018-11-25T11:46:46.363Z,66.32
2018-11-25T11:49:13.808Z,66.11
2018-11-25T11:51:41.217Z,65.94
2018-11-25T11:54:08.649Z,66.27
2018-11-25T11:56:40.244Z,66.34
2018-11-25T11:59:03.486Z,66.46
2018-11-25T12:01:30.940Z,66.40
2018-11-25T12:03:58.359Z,66.12
2018-11-25T12:06:25.778Z,65.66
2018-11-25T12:08:53.280Z,65.05
2018-11-25T12:11:20.737Z,64.84
2018-11-25T12:13:48.173Z,64.92
2018-11-25T12:16:15.628Z,65.28
2018-11-25T12:18:43.143Z,64.67
2018-11-25T12:21:10.543Z,63.60
2018-11-25T12:23:37.958Z,63.50
2018-11-25T12:26:05.375Z,62.92
2018-11-25T12:28:32.827Z,62.93
2018-11-25T12:31:00.322Z,63.24
2018-11-25T12:33:27.726Z,63.70
2018-11-25T12:35:55.180Z,63.71
2018-11-25T12:38:22.606Z,63.71
2018-11-25T12:40:50.498Z,63.97
2018-11-25T12:43:17.909Z,64.34
2018-11-25T12:45:45.322Z,64.72
2018-11-25T12:48:13.691Z,64.83
2018-11-25T12:50:41.317Z,64.01
2018-11-25T12:53:08.719Z,63.40
2018-11-25T12:55:36.180Z,63.20
2018-11-25T12:58:04.773Z,63.25
2018-11-25T13:00:32.174Z,62.93
2018-11-25T13:02:59.621Z,62.99
2018-11-25T13:05:28.129Z,62.86
2018-11-25T13:07:55.582Z,62.79
2018-11-25T13:10:22.966Z,63.11
2018-11-25T13:12:50.435Z,63.48
2018-11-25T13:15:17.849Z,63.46
2018-11-25T13:17:45.325Z,63.52
2018-11-25T13:20:13.482Z,63.76
2018-11-25T13:22:41.074Z,64.18
2018-11-25T13:25:08.553Z,64.53
2018-11-25T13:27:36.346Z,65.49
2018-11-25T13:30:03.742Z,65.80
2018-11-25T13:32:31.197Z,66.02
2018-11-25T13:34:58.682Z,65.67
2018-11-25T13:37:26.093Z,65.85
2018-11-25T13:39:53.542Z,65.29
2018-11-25T13:42:20.945Z,65.76
2018-11-25T13:44:48.042Z,65.92
2018-11-25T13:47:15.428Z,65.91
2018-11-25T13:49:42.870Z,65.95
2018-11-25T13:52:10.323Z,66.08
2018-11-25T13:54:37.771Z,66.57
2018-11-25T13:57:05.217Z,67.59
2018-11-25T13:59:32.606Z,68.01
2018-11-25T14:02:00.041Z,68.45
2018-11-25T14:04:27.457Z,69.16
2018-11-25T14:06:54.878Z,69.48
2018-11-25T14:09:22.300Z,70.03
2018-11-25T14:11:49.712Z,70.09
2018-11-25T14:14:17.320Z,70.70
2018-11-25T14:16:44.821Z,70.66
2018-11-25T14:19:12.229Z,70.81
2018-11-25T14:21:39.640Z,70.85
2018-11-25T14:24:07.057Z,70.85
2018-11-25T14:26:34.496Z,70.89
2018-11-25T14:29:01.954Z,71.45
2018-11-25T14:31:29.458Z,71.48
2018-11-25T14:33:56.871Z,71.98
2018-11-25T14:36:24.277Z,72.85
2018-11-25T14:38:51.683Z,72.88
2018-11-25T14:41:19.078Z,72.81
2018-11-25T14:43:46.508Z,72.79
2018-11-25T14:46:14.688Z,72.87
2018-11-25T14:48:42.081Z,72.77
2018-11-25T14:51:09.565Z,73.18
2018-11-25T14:53:36.969Z,73.39
2018-11-25T14:56:04.424Z,73.10
2018-11-25T14:58:31.946Z,72.17
2018-11-25T15:00:59.357Z,72.98
2018-11-25T15:03:26.885Z,73.32
2018-11-25T15:05:55.562Z,72.67
2018-11-25T15:08:22.971Z,73.02
2018-11-25T15:10:51.131Z,73.50
2018-11-25T15:13:18.546Z,73.56
2018-11-25T15:15:46.251Z,73.94
2018-11-25T15:18:13.831Z,73.59
2018-11-25T15:20:41.336Z,73.14
2018-11-25T15:23:08.724Z,72.85
2018-11-25T15:25:36.147Z,72.62
2018-11-25T15:28:03.571Z,72.71
2018-11-25T15:30:31.052Z,72.99
2018-11-25T15:32:59.515Z,73.00
2018-11-25T15:35:26.981Z,72.94
2018-11-25T15:37:54.460Z,72.83
2018-11-25T15:40:22.361Z,73.42
2018-11-25T15:42:49.951Z,74.03
2018-11-25T15:45:17.360Z,74.04
2018-11-25T15:47:44.853Z,74.30
2018-11-25T15:50:12.273Z,74.62
2018-11-25T15:52:39.675Z,74.89
2018-11-25T15:55:07.289Z,75.28
2018-11-25T15:57:34.770Z,75.57
2018-11-25T16:00:02.325Z,76.24
2018-11-25T16:02:29.851Z,76.24
2018-11-25T16:04:57.651Z,75.77
2018-11-25T16:07:25.177Z,76.28
2018-11-25T16:09:52.614Z,76.27
2018-11-25T16:12:20.043Z,76.80
2018-11-25T16:14:47.499Z,76.58
2018-11-25T16:17:14.944Z,76.44
2018-11-25T16:19:42.348Z,76.61
2018-11-25T16:22:09.933Z,76.87
2018-11-25T16:24:39.152Z,77.16
2018-11-25T16:27:06.581Z,77.51
2018-11-25T16:29:34.049Z,77.89
2018-11-25T16:32:01.568Z,77.90
2018-11-25T16:34:28.967Z,78.43
2018-11-25T16:36:56.510Z,78.44
2018-11-25T16:39:23.919Z,77.71
2018-11-25T16:41:51.518Z,77.12
2018-11-25T16:44:18.916Z,76.86
2018-11-25T16:46:46.452Z,76.69
2018-11-25T16:49:13.871Z,76.47
2018-11-25T16:51:41.430Z,76.78
2018-11-25T16:54:08.810Z,76.62
2018-11-25T16:56:36.261Z,76.96
2018-11-25T16:59:03.659Z,76.51
2018-11-25T17:01:31.202Z,77.00
2018-11-25T17:03:59.298Z,76.86
2018-11-25T17:06:26.721Z,76.82
2018-11-25T17:08:54.168Z,76.51
2018-11-25T17:11:21.650Z,76.22
2018-11-25T17:13:49.320Z,75.87
2018-11-25T17:16:16.751Z,75.58
2018-11-25T17:18:44.281Z,75.39
2018-11-25T17:21:11.808Z,75.92
2018-11-25T17:23:39.239Z,76.17
2018-11-25T17:26:06.681Z,76.91
2018-11-25T17:28:34.130Z,77.68
2018-11-25T17:31:01.514Z,77.83
2018-11-25T17:33:28.938Z,78.39
2018-11-25T17:35:56.420Z,78.81
2018-11-25T17:38:24.962Z,79.03
2018-11-25T17:40:51.636Z,79.02
2018-11-25T17:43:19.064Z,78.81
2018-11-25T17:45:46.549Z,78.58
2018-11-25T17:48:14.013Z,78.21
2018-11-25T17:50:41.428Z,77.96
2018-11-25T17:53:08.918Z,78.06
2018-11-25T17:55:37.655Z,78.23
2018-11-25T17:58:05.371Z,78.05
2018-11-25T18:00:32.759Z,77.74
2018-11-25T18:03:00.182Z,77.49
2018-11-25T18:05:27.596Z,77.56
2018-11-25T18:07:56.158Z,77.72
2018-11-25T18:10:23.591Z,78.05
2018-11-25T18:12:50.999Z,78.93
2018-11-25T18:15:19.040Z,79.47
2018-11-25T18:17:47.498Z,79.30
2018-11-25T18:20:14.977Z,79.66
2018-11-25T18:22:42.407Z,79.60
2018-11-25T18:25:09.815Z,79.76
2018-11-25T18:27:37.227Z,80.04
2018-11-25T18:30:05.569Z,80.07
2018-11-25T18:32:33.206Z,80.02
2018-11-25T18:35:00.915Z,79.87
2018-11-25T18:37:28.424Z,79.88
2018-11-25T18:39:55.838Z,80.09
2018-11-25T18:42:23.291Z,80.20
2018-11-25T18:44:51.136Z,80.05
2018-11-25T18:47:18.634Z,80.29
2018-11-25T18:49:46.092Z,80.69
2018-11-25T18:52:13.958Z,81.02
2018-11-25T18:54:41.344Z,80.77
2018-11-25T18:57:08.874Z,80.81
2018-11-25T18:59:36.273Z,80.91
2018-11-25T19:02:04.830Z,81.28
2018-11-25T19:04:32.242Z,81.40
2018-11-25T19:06:59.935Z,81.42
2018-11-25T19:09:27.439Z,80.97
2018-11-25T19:11:54.914Z,81.01
2018-11-25T19:14:23.010Z,81.16
2018-11-25T19:16:50.425Z,81.42
2018-11-25T19:19:17.812Z,81.28
2018-11-25T19:21:45.314Z,81.11
2018-11-25T19:24:12.720Z,81.00
2018-11-25T19:26:40.803Z,81.24
2018-11-25T19:29:08.310Z,81.55
2018-11-25T19:31:35.714Z,81.33
2018-11-25T19:34:03.988Z,81.06
2018-11-25T19:36:31.460Z,80.67
2018-11-25T19:38:58.879Z,80.65
2018-11-25T19:41:26.299Z,80.66
2018-11-25T19:43:53.997Z,80.48
2018-11-25T19:46:21.484Z,80.42
2018-11-25T19:48:48.921Z,80.71
2018-11-25T19:51:17.702Z,80.79
2018-11-25T19:53:43.787Z,81.20
2018-11-25T19:56:11.195Z,81.01
2018-11-25T19:58:38.654Z,80.99
2018-11-25T20:01:06.057Z,80.99
2018-11-25T20:03:33.578Z,81.14
2018-11-25T20:06:01.066Z,81.45
2018-11-25T20:08:28.673Z,81.67
2018-11-25T20:10:56.258Z,81.56
2018-11-25T20:13:23.677Z,81.29
2018-11-25T20:15:51.089Z,81.06
2018-11-25T20:18:18.512Z,80.81
2018-11-25T20:20:46.014Z,81.00
2018-11-25T20:23:13.420Z,80.95
2018-11-25T20:25:40.867Z,80.85
2018-11-25T20:28:08.265Z,81.12
2018-11-25T20:30:35.703Z,81.07
2018-11-25T20:33:08.691Z,80.96
2018-11-25T20:35:36.098Z,80.89
2018-11-25T20:38:03.503Z,80.83
2018-11-25T20:40:30.985Z,80.91
2018-11-25T20:42:58.378Z,81.16
2018-11-25T20:45:25.825Z,81.46
2018-11-25T20:47:53.222Z,81.66
2018-11-25T20:50:20.625Z,81.91
2018-11-25T20:55:42.271Z,81.15
2018-11-25T20:58:09.676Z,81.30
2018-11-25T21:00:37.179Z,81.38
2018-11-25T21:03:04.654Z,81.76
2018-11-25T21:05:32.105Z,81.72
2018-11-25T21:08:00.344Z,81.56
2018-11-25T21:10:27.816Z,81.65
2018-11-25T21:12:55.218Z,81.63
2018-11-25T21:15:22.624Z,81.75
2018-11-25T21:17:50.087Z,81.95
2018-11-25T21:20:17.659Z,82.40
2018-11-25T21:22:45.167Z,82.53
2018-11-25T21:25:12.769Z,82.34
2018-11-25T21:27:40.254Z,81.98
2018-11-25T21:30:07.837Z,81.91
2018-11-25T21:32:35.342Z,82.24
2018-11-25T21:35:02.798Z,82.47
2018-11-25T21:37:30.268Z,82.54
2018-11-25T21:39:57.714Z,82.59
2018-11-25T21:42:25.155Z,82.49
2018-11-25T21:44:52.623Z,82.37
2018-11-25T21:47:20.059Z,82.31
2018-11-25T21:49:47.658Z,82.37
2018-11-25T21:52:16.581Z,82.45
2018-11-25T21:54:44.370Z,82.40
2018-11-25T21:57:11.954Z,82.03
2018-11-25T21:59:39.367Z,81.99
2018-11-25T22:02:06.773Z,81.84
2018-11-25T22:04:34.241Z,81.69
2018-11-25T22:07:01.660Z,81.73
2018-11-25T22:09:30.064Z,81.63
2018-11-25T22:11:57.503Z,81.56
2018-11-25T22:14:24.975Z,81.69
2018-11-25T22:16:52.398Z,81.75
2018-11-25T22:19:19.779Z,81.99
2018-11-25T22:21:47.255Z,82.28
2018-11-25T22:24:14.706Z,82.18
2018-11-25T22:26:42.337Z,82.29
2018-11-25T22:29:09.761Z,82.32
2018-11-25T22:31:37.247Z,82.33
2018-11-25T22:34:04.693Z,82.99
2018-11-25T22:36:32.074Z,83.32
2018-11-25T22:38:59.713Z,83.34
2018-11-25T22:41:27.170Z,83.20
2018-11-25T22:43:54.564Z,83.23
2018-11-25T22:46:21.968Z,83.20
2018-11-25T22:48:49.408Z,83.29
2018-11-25T22:51:16.815Z,83.36
2018-11-25T22:53:44.230Z,83.08
2018-11-25T22:56:11.939Z,83.22
2018-11-25T22:58:39.411Z,83.11
2018-11-25T23:01:06.826Z,83.00
2018-11-25T23:03:34.230Z,83.18
2018-11-25T23:09:17.748Z,82.06
2018-11-25T23:11:45.207Z,82.15
2018-11-25T23:14:12.676Z,82.18
2018-11-25T23:16:40.093Z,82.23
2018-11-25T23:19:07.610Z,82.10
2018-11-25T23:21:35.037Z,82.12
2018-11-25T23:24:03.594Z,82.12
2018-11-25T23:26:29.961Z,82.21
2018-11-25T23:28:57.478Z,82.22
2018-11-25T23:31:24.998Z,82.01
2018-11-25T23:33:52.788Z,81.69
2018-11-25T23:36:20.204Z,81.36
2018-11-25T23:38:47.671Z,81.74
2018-11-25T23:41:15.126Z,81.66
2018-11-25T23:43:42.536Z,82.03
2018-11-25T23:46:09.940Z,82.40
2018-11-25T23:48:37.374Z,82.63
2018-11-25T23:51:04.789Z,82.92
2018-11-25T23:53:32.219Z,83.18
2018-11-25T23:55:59.612Z,83.41
2018-11-25T23:58:27.013Z,83.39
